sensor_id;sensor_type;location;lat;lon;timestamp;temperature;humidity
5520;DHT22;2782;52.362;10.012;2023-07-28T00:00:14;20.70;89.10
5520;DHT22;2782;52.362;10.012;2023-07-28T00:01:15;20.70;89.20
5520;DHT22;2782;52.362;10.012;2023-07-28T00:02:16;20.70;89.10
5520;DHT22;2782;52.362;10.012;2023-07-28T00:03:18;20.70;89.10
5520;DHT22;2782;52.362;10.012;2023-07-28T00:04:19;20.70;89.10
5520;DHT22;2782;52.362;10.012;2023-07-28T00:05:20;20.70;89.20
5520;DHT22;2782;52.362;10.012;2023-07-28T00:06:21;20.70;89.10
5520;DHT22;2782;52.362;10.012;2023-07-28T00:07:22;20.70;89.10
5520;DHT22;2782;52.362;10.012;2023-07-28T00:08:23;20.70;89.10
5520;DHT22;2782;52.362;10.012;2023-07-28T00:09:25;20.70;89.10
5520;DHT22;2782;52.362;10.012;2023-07-28T00:10:25;20.80;89.10
5520;DHT22;2782;52.362;10.012;2023-07-28T00:11:28;20.80;89.10
5520;DHT22;2782;52.362;10.012;2023-07-28T00:12:29;20.70;89.10
5520;DHT22;2782;52.362;10.012;2023-07-28T00:13:31;20.80;89.20
5520;DHT22;2782;52.362;10.012;2023-07-28T00:14:32;20.70;88.90
5520;DHT22;2782;52.362;10.012;2023-07-28T00:15:32;20.70;89.00
5520;DHT22;2782;52.362;10.012;2023-07-28T00:16:34;20.70;89.10
5520;DHT22;2782;52.362;10.012;2023-07-28T00:17:35;20.70;89.10
5520;DHT22;2782;52.362;10.012;2023-07-28T00:18:36;20.70;89.10
5520;DHT22;2782;52.362;10.012;2023-07-28T00:19:37;20.80;89.20
5520;DHT22;2782;52.362;10.012;2023-07-28T00:20:39;20.80;89.40
5520;DHT22;2782;52.362;10.012;2023-07-28T00:21:39;20.70;89.10
5520;DHT22;2782;52.362;10.012;2023-07-28T00:22:41;20.70;89.10
5520;DHT22;2782;52.362;10.012;2023-07-28T00:23:42;20.70;89.10
5520;DHT22;2782;52.362;10.012;2023-07-28T00:24:43;20.70;89.00
5520;DHT22;2782;52.362;10.012;2023-07-28T00:25:44;20.70;88.90
5520;DHT22;2782;52.362;10.012;2023-07-28T00:26:46;20.70;89.10
5520;DHT22;2782;52.362;10.012;2023-07-28T00:27:47;20.70;88.90
5520;DHT22;2782;52.362;10.012;2023-07-28T00:28:49;20.70;89.00
5520;DHT22;2782;52.362;10.012;2023-07-28T00:29:49;20.70;88.90
5520;DHT22;2782;52.362;10.012;2023-07-28T00:30:51;20.70;89.00
5520;DHT22;2782;52.362;10.012;2023-07-28T00:31:52;20.70;89.10
5520;DHT22;2782;52.362;10.012;2023-07-28T00:32:54;20.70;88.90
5520;DHT22;2782;52.362;10.012;2023-07-28T00:33:54;20.70;88.80
5520;DHT22;2782;52.362;10.012;2023-07-28T00:34:56;20.70;88.80
5520;DHT22;2782;52.362;10.012;2023-07-28T00:35:57;20.70;88.90
5520;DHT22;2782;52.362;10.012;2023-07-28T00:36:58;20.70;88.80
5520;DHT22;2782;52.362;10.012;2023-07-28T00:37:59;20.70;88.80
5520;DHT22;2782;52.362;10.012;2023-07-28T00:39:01;20.70;88.80
5520;DHT22;2782;52.362;10.012;2023-07-28T00:40:01;20.70;88.80
5520;DHT22;2782;52.362;10.012;2023-07-28T00:41:04;20.70;88.90
5520;DHT22;2782;52.362;10.012;2023-07-28T00:42:06;20.70;88.80
5520;DHT22;2782;52.362;10.012;2023-07-28T00:43:09;20.70;88.80
5520;DHT22;2782;52.362;10.012;2023-07-28T00:44:10;20.70;88.70
5520;DHT22;2782;52.362;10.012;2023-07-28T00:45:12;20.70;88.80
5520;DHT22;2782;52.362;10.012;2023-07-28T00:46:13;20.70;88.80
5520;DHT22;2782;52.362;10.012;2023-07-28T00:47:15;20.70;88.70
5520;DHT22;2782;52.362;10.012;2023-07-28T00:48:17;20.70;88.70
5520;DHT22;2782;52.362;10.012;2023-07-28T00:49:21;20.70;88.70
5520;DHT22;2782;52.362;10.012;2023-07-28T00:50:22;20.70;88.80
5520;DHT22;2782;52.362;10.012;2023-07-28T00:51:23;20.70;88.80
5520;DHT22;2782;52.362;10.012;2023-07-28T00:52:24;20.70;88.80
5520;DHT22;2782;52.362;10.012;2023-07-28T00:53:26;20.70;88.70
5520;DHT22;2782;52.362;10.012;2023-07-28T00:54:27;20.70;88.60
5520;DHT22;2782;52.362;10.012;2023-07-28T00:55:29;20.70;88.60
5520;DHT22;2782;52.362;10.012;2023-07-28T00:56:31;20.70;88.70
5520;DHT22;2782;52.362;10.012;2023-07-28T00:57:34;20.70;88.80
5520;DHT22;2782;52.362;10.012;2023-07-28T00:58:35;20.70;88.60
5520;DHT22;2782;52.362;10.012;2023-07-28T00:59:36;20.80;88.70
5520;DHT22;2782;52.362;10.012;2023-07-28T01:00:37;20.70;88.60
5520;DHT22;2782;52.362;10.012;2023-07-28T01:01:38;20.70;88.50
5520;DHT22;2782;52.362;10.012;2023-07-28T01:02:40;20.70;88.60
5520;DHT22;2782;52.362;10.012;2023-07-28T01:03:40;20.70;88.60
5520;DHT22;2782;52.362;10.012;2023-07-28T01:04:42;20.70;88.70
5520;DHT22;2782;52.362;10.012;2023-07-28T01:05:50;20.70;88.70
5520;DHT22;2782;52.362;10.012;2023-07-28T01:07:03;20.70;88.70
5520;DHT22;2782;52.362;10.012;2023-07-28T01:08:09;20.70;88.70
5520;DHT22;2782;52.362;10.012;2023-07-28T01:09:15;20.70;88.60
5520;DHT22;2782;52.362;10.012;2023-07-28T01:10:30;20.70;88.60
5520;DHT22;2782;52.362;10.012;2023-07-28T01:11:32;20.70;88.70
5520;DHT22;2782;52.362;10.012;2023-07-28T01:12:34;20.70;88.60
5520;DHT22;2782;52.362;10.012;2023-07-28T01:13:36;20.70;88.60
5520;DHT22;2782;52.362;10.012;2023-07-28T01:14:36;20.70;88.70
5520;DHT22;2782;52.362;10.012;2023-07-28T01:15:38;20.70;88.80
5520;DHT22;2782;52.362;10.012;2023-07-28T01:16:39;20.70;88.70
5520;DHT22;2782;52.362;10.012;2023-07-28T01:17:41;20.70;88.70
5520;DHT22;2782;52.362;10.012;2023-07-28T01:18:41;20.70;88.70
5520;DHT22;2782;52.362;10.012;2023-07-28T01:19:43;20.70;88.60
5520;DHT22;2782;52.362;10.012;2023-07-28T01:20:44;20.70;88.50
5520;DHT22;2782;52.362;10.012;2023-07-28T01:21:53;20.70;88.50
5520;DHT22;2782;52.362;10.012;2023-07-28T01:23:05;20.70;88.50
5520;DHT22;2782;52.362;10.012;2023-07-28T01:24:17;20.80;88.60
5520;DHT22;2782;52.362;10.012;2023-07-28T01:25:28;20.70;88.50
5520;DHT22;2782;52.362;10.012;2023-07-28T01:26:33;20.70;88.50
5520;DHT22;2782;52.362;10.012;2023-07-28T01:27:35;20.70;88.50
5520;DHT22;2782;52.362;10.012;2023-07-28T01:28:39;20.70;88.50
5520;DHT22;2782;52.362;10.012;2023-07-28T01:29:41;20.70;88.60
5520;DHT22;2782;52.362;10.012;2023-07-28T01:30:43;20.70;88.50
5520;DHT22;2782;52.362;10.012;2023-07-28T01:31:46;20.70;88.50
5520;DHT22;2782;52.362;10.012;2023-07-28T01:32:48;20.70;88.40
5520;DHT22;2782;52.362;10.012;2023-07-28T01:33:49;20.70;88.40
5520;DHT22;2782;52.362;10.012;2023-07-28T01:34:50;20.70;88.30
5520;DHT22;2782;52.362;10.012;2023-07-28T01:35:51;20.70;88.40
5520;DHT22;2782;52.362;10.012;2023-07-28T01:36:53;20.70;88.50
5520;DHT22;2782;52.362;10.012;2023-07-28T01:37:53;20.70;88.40
5520;DHT22;2782;52.362;10.012;2023-07-28T01:38:54;20.70;88.30
5520;DHT22;2782;52.362;10.012;2023-07-28T01:39:56;20.70;88.20
5520;DHT22;2782;52.362;10.012;2023-07-28T01:40:57;20.70;88.30
5520;DHT22;2782;52.362;10.012;2023-07-28T01:42:00;20.70;88.30
5520;DHT22;2782;52.362;10.012;2023-07-28T01:43:01;20.70;88.30
5520;DHT22;2782;52.362;10.012;2023-07-28T01:44:03;20.70;88.20
5520;DHT22;2782;52.362;10.012;2023-07-28T01:45:05;20.70;88.10
5520;DHT22;2782;52.362;10.012;2023-07-28T01:46:06;20.70;88.10
5520;DHT22;2782;52.362;10.012;2023-07-28T01:47:07;20.70;88.10
5520;DHT22;2782;52.362;10.012;2023-07-28T01:48:09;20.70;88.80
5520;DHT22;2782;52.362;10.012;2023-07-28T01:49:09;20.80;88.20
5520;DHT22;2782;52.362;10.012;2023-07-28T01:50:11;20.70;88.10
5520;DHT22;2782;52.362;10.012;2023-07-28T01:51:12;20.70;88.00
5520;DHT22;2782;52.362;10.012;2023-07-28T01:52:14;20.70;88.00
5520;DHT22;2782;52.362;10.012;2023-07-28T01:53:14;20.70;88.00
5520;DHT22;2782;52.362;10.012;2023-07-28T01:54:16;20.70;88.00
5520;DHT22;2782;52.362;10.012;2023-07-28T01:55:17;20.70;88.00
5520;DHT22;2782;52.362;10.012;2023-07-28T01:56:17;20.70;88.00
5520;DHT22;2782;52.362;10.012;2023-07-28T01:57:20;20.70;88.80
5520;DHT22;2782;52.362;10.012;2023-07-28T01:58:21;20.70;88.00
5520;DHT22;2782;52.362;10.012;2023-07-28T01:59:23;20.70;88.00
5520;DHT22;2782;52.362;10.012;2023-07-28T02:00:24;20.70;87.90
5520;DHT22;2782;52.362;10.012;2023-07-28T02:01:25;20.70;88.00
5520;DHT22;2782;52.362;10.012;2023-07-28T02:02:26;20.70;87.90
5520;DHT22;2782;52.362;10.012;2023-07-28T02:03:28;20.70;87.90
5520;DHT22;2782;52.362;10.012;2023-07-28T02:04:28;20.70;87.80
5520;DHT22;2782;52.362;10.012;2023-07-28T02:05:30;20.70;87.80
5520;DHT22;2782;52.362;10.012;2023-07-28T02:06:31;20.70;87.80
5520;DHT22;2782;52.362;10.012;2023-07-28T02:07:32;20.70;87.80
5520;DHT22;2782;52.362;10.012;2023-07-28T02:08:34;20.70;87.70
5520;DHT22;2782;52.362;10.012;2023-07-28T02:09:34;20.70;87.70
5520;DHT22;2782;52.362;10.012;2023-07-28T02:10:36;20.70;87.70
5520;DHT22;2782;52.362;10.012;2023-07-28T02:11:37;20.70;87.60
5520;DHT22;2782;52.362;10.012;2023-07-28T02:12:40;20.70;87.60
5520;DHT22;2782;52.362;10.012;2023-07-28T02:13:40;20.80;87.70
5520;DHT22;2782;52.362;10.012;2023-07-28T02:14:42;20.70;87.60
5520;DHT22;2782;52.362;10.012;2023-07-28T02:15:43;20.70;87.60
5520;DHT22;2782;52.362;10.012;2023-07-28T02:16:44;20.70;87.60
5520;DHT22;2782;52.362;10.012;2023-07-28T02:17:45;20.70;87.60
5520;DHT22;2782;52.362;10.012;2023-07-28T02:18:47;20.70;87.50
5520;DHT22;2782;52.362;10.012;2023-07-28T02:19:47;20.70;87.50
5520;DHT22;2782;52.362;10.012;2023-07-28T02:20:49;20.80;87.60
5520;DHT22;2782;52.362;10.012;2023-07-28T02:21:50;20.70;87.50
5520;DHT22;2782;52.362;10.012;2023-07-28T02:22:52;20.70;87.50
5520;DHT22;2782;52.362;10.012;2023-07-28T02:23:52;20.70;87.40
5520;DHT22;2782;52.362;10.012;2023-07-28T02:24:54;20.70;87.40
5520;DHT22;2782;52.362;10.012;2023-07-28T02:25:55;20.70;87.40
5520;DHT22;2782;52.362;10.012;2023-07-28T02:26:57;20.70;87.30
5520;DHT22;2782;52.362;10.012;2023-07-28T02:27:59;20.70;87.30
5520;DHT22;2782;52.362;10.012;2023-07-28T02:29:00;20.70;87.40
5520;DHT22;2782;52.362;10.012;2023-07-28T02:30:01;20.70;87.30
5520;DHT22;2782;52.362;10.012;2023-07-28T02:31:03;20.70;87.30
5520;DHT22;2782;52.362;10.012;2023-07-28T02:32:06;20.70;87.30
5520;DHT22;2782;52.362;10.012;2023-07-28T02:33:08;20.70;87.30
5520;DHT22;2782;52.362;10.012;2023-07-28T02:34:09;20.70;87.30
5520;DHT22;2782;52.362;10.012;2023-07-28T02:35:10;20.70;87.30
5520;DHT22;2782;52.362;10.012;2023-07-28T02:36:11;20.70;87.30
5520;DHT22;2782;52.362;10.012;2023-07-28T02:37:14;20.80;87.40
5520;DHT22;2782;52.362;10.012;2023-07-28T02:38:15;20.70;87.20
5520;DHT22;2782;52.362;10.012;2023-07-28T02:39:17;20.70;87.20
5520;DHT22;2782;52.362;10.012;2023-07-28T02:40:18;20.70;87.10
5520;DHT22;2782;52.362;10.012;2023-07-28T02:41:19;20.70;87.10
5520;DHT22;2782;52.362;10.012;2023-07-28T02:42:20;20.70;87.10
5520;DHT22;2782;52.362;10.012;2023-07-28T02:43:25;20.70;87.00
5520;DHT22;2782;52.362;10.012;2023-07-28T02:44:26;20.70;87.10
5520;DHT22;2782;52.362;10.012;2023-07-28T02:45:27;20.70;87.10
5520;DHT22;2782;52.362;10.012;2023-07-28T02:46:28;20.70;87.00
5520;DHT22;2782;52.362;10.012;2023-07-28T02:47:30;20.70;87.00
5520;DHT22;2782;52.362;10.012;2023-07-28T02:48:30;20.70;87.00
5520;DHT22;2782;52.362;10.012;2023-07-28T02:49:32;20.70;87.00
5520;DHT22;2782;52.362;10.012;2023-07-28T02:50:33;20.70;87.00
5520;DHT22;2782;52.362;10.012;2023-07-28T02:51:34;20.70;87.00
5520;DHT22;2782;52.362;10.012;2023-07-28T02:52:35;20.80;87.10
5520;DHT22;2782;52.362;10.012;2023-07-28T02:53:36;20.70;87.00
5520;DHT22;2782;52.362;10.012;2023-07-28T02:54:37;20.70;86.90
5520;DHT22;2782;52.362;10.012;2023-07-28T02:55:41;20.70;86.80
5520;DHT22;2782;52.362;10.012;2023-07-28T02:56:41;20.70;86.80
5520;DHT22;2782;52.362;10.012;2023-07-28T02:57:42;20.70;86.70
5520;DHT22;2782;52.362;10.012;2023-07-28T02:58:45;20.70;86.70
5520;DHT22;2782;52.362;10.012;2023-07-28T02:59:46;20.70;86.70
5520;DHT22;2782;52.362;10.012;2023-07-28T03:00:48;20.70;86.70
5520;DHT22;2782;52.362;10.012;2023-07-28T03:01:48;20.70;86.70
5520;DHT22;2782;52.362;10.012;2023-07-28T03:02:52;20.70;86.70
5520;DHT22;2782;52.362;10.012;2023-07-28T03:03:52;20.70;86.70
5520;DHT22;2782;52.362;10.012;2023-07-28T03:04:54;20.70;86.70
5520;DHT22;2782;52.362;10.012;2023-07-28T03:05:55;20.70;86.70
5520;DHT22;2782;52.362;10.012;2023-07-28T03:06:56;20.70;86.70
5520;DHT22;2782;52.362;10.012;2023-07-28T03:07:57;20.70;86.70
5520;DHT22;2782;52.362;10.012;2023-07-28T03:08:59;20.70;86.60
5520;DHT22;2782;52.362;10.012;2023-07-28T03:10:00;20.70;86.60
5520;DHT22;2782;52.362;10.012;2023-07-28T03:11:01;20.70;86.60
5520;DHT22;2782;52.362;10.012;2023-07-28T03:12:03;20.70;86.60
5520;DHT22;2782;52.362;10.012;2023-07-28T03:13:06;20.70;86.60
5520;DHT22;2782;52.362;10.012;2023-07-28T03:14:09;20.70;86.60
5520;DHT22;2782;52.362;10.012;2023-07-28T03:15:10;20.70;86.60
5520;DHT22;2782;52.362;10.012;2023-07-28T03:16:11;20.70;86.60
5520;DHT22;2782;52.362;10.012;2023-07-28T03:17:12;20.70;86.60
5520;DHT22;2782;52.362;10.012;2023-07-28T03:18:14;20.70;86.50
5520;DHT22;2782;52.362;10.012;2023-07-28T03:19:15;20.70;86.50
5520;DHT22;2782;52.362;10.012;2023-07-28T03:20:16;20.80;86.60
5520;DHT22;2782;52.362;10.012;2023-07-28T03:21:17;20.70;86.40
5520;DHT22;2782;52.362;10.012;2023-07-28T03:22:18;20.70;86.40
5520;DHT22;2782;52.362;10.012;2023-07-28T03:23:20;20.80;86.30
5520;DHT22;2782;52.362;10.012;2023-07-28T03:24:20;20.70;86.20
5520;DHT22;2782;52.362;10.012;2023-07-28T03:25:22;20.70;85.80
5520;DHT22;2782;52.362;10.012;2023-07-28T03:26:23;20.80;85.70
5520;DHT22;2782;52.362;10.012;2023-07-28T03:27:24;20.80;85.50
5520;DHT22;2782;52.362;10.012;2023-07-28T03:28:25;20.80;85.60
5520;DHT22;2782;52.362;10.012;2023-07-28T03:29:27;20.80;85.30
5520;DHT22;2782;52.362;10.012;2023-07-28T03:30:29;20.80;85.40
5520;DHT22;2782;52.362;10.012;2023-07-28T03:31:29;20.80;86.00
5520;DHT22;2782;52.362;10.012;2023-07-28T03:32:31;20.80;86.40
5520;DHT22;2782;52.362;10.012;2023-07-28T03:33:32;20.80;86.20
5520;DHT22;2782;52.362;10.012;2023-07-28T03:34:34;20.80;86.60
5520;DHT22;2782;52.362;10.012;2023-07-28T03:35:35;20.80;86.30
5520;DHT22;2782;52.362;10.012;2023-07-28T03:36:36;20.80;86.20
5520;DHT22;2782;52.362;10.012;2023-07-28T03:37:38;20.80;86.50
5520;DHT22;2782;52.362;10.012;2023-07-28T03:38:38;20.80;86.40
5520;DHT22;2782;52.362;10.012;2023-07-28T03:39:40;20.80;87.30
5520;DHT22;2782;52.362;10.012;2023-07-28T03:40:41;20.80;87.10
5520;DHT22;2782;52.362;10.012;2023-07-28T03:41:44;20.80;87.50
5520;DHT22;2782;52.362;10.012;2023-07-28T03:42:44;20.80;87.50
5520;DHT22;2782;52.362;10.012;2023-07-28T03:43:46;20.80;87.30
5520;DHT22;2782;52.362;10.012;2023-07-28T03:44:48;20.80;87.40
5520;DHT22;2782;52.362;10.012;2023-07-28T03:45:50;20.80;87.30
5520;DHT22;2782;52.362;10.012;2023-07-28T03:46:51;20.80;87.30
5520;DHT22;2782;52.362;10.012;2023-07-28T03:47:53;20.80;87.20
5520;DHT22;2782;52.362;10.012;2023-07-28T03:48:53;20.80;87.20
5520;DHT22;2782;52.362;10.012;2023-07-28T03:49:55;20.80;87.10
5520;DHT22;2782;52.362;10.012;2023-07-28T03:50:56;20.80;87.20
5520;DHT22;2782;52.362;10.012;2023-07-28T03:51:58;20.80;87.10
5520;DHT22;2782;52.362;10.012;2023-07-28T03:52:58;20.80;87.10
5520;DHT22;2782;52.362;10.012;2023-07-28T03:54:00;20.80;87.10
5520;DHT22;2782;52.362;10.012;2023-07-28T03:55:01;20.80;87.10
5520;DHT22;2782;52.362;10.012;2023-07-28T03:56:03;20.80;87.10
5520;DHT22;2782;52.362;10.012;2023-07-28T03:57:04;20.80;87.10
5520;DHT22;2782;52.362;10.012;2023-07-28T03:58:06;20.80;87.10
5520;DHT22;2782;52.362;10.012;2023-07-28T03:59:07;20.80;87.10
5520;DHT22;2782;52.362;10.012;2023-07-28T04:00:11;20.80;87.10
5520;DHT22;2782;52.362;10.012;2023-07-28T04:01:12;20.80;87.10
5520;DHT22;2782;52.362;10.012;2023-07-28T04:02:14;20.80;86.90
5520;DHT22;2782;52.362;10.012;2023-07-28T04:03:15;20.80;86.90
5520;DHT22;2782;52.362;10.012;2023-07-28T04:04:16;20.80;86.90
5520;DHT22;2782;52.362;10.012;2023-07-28T04:05:18;20.80;86.90
5520;DHT22;2782;52.362;10.012;2023-07-28T04:06:19;20.80;86.90
5520;DHT22;2782;52.362;10.012;2023-07-28T04:07:21;20.70;86.80
5520;DHT22;2782;52.362;10.012;2023-07-28T04:08:21;20.80;86.90
5520;DHT22;2782;52.362;10.012;2023-07-28T04:09:23;20.80;86.90
5520;DHT22;2782;52.362;10.012;2023-07-28T04:10:24;20.80;86.90
5520;DHT22;2782;52.362;10.012;2023-07-28T04:11:25;20.80;86.80
5520;DHT22;2782;52.362;10.012;2023-07-28T04:12:26;20.80;86.90
5520;DHT22;2782;52.362;10.012;2023-07-28T04:13:27;20.80;86.90
5520;DHT22;2782;52.362;10.012;2023-07-28T04:14:29;20.80;86.80
5520;DHT22;2782;52.362;10.012;2023-07-28T04:15:31;20.70;86.70
5520;DHT22;2782;52.362;10.012;2023-07-28T04:16:33;20.80;86.90
5520;DHT22;2782;52.362;10.012;2023-07-28T04:17:33;20.70;86.60
5520;DHT22;2782;52.362;10.012;2023-07-28T04:18:35;20.70;86.70
5520;DHT22;2782;52.362;10.012;2023-07-28T04:19:36;20.80;86.70
5520;DHT22;2782;52.362;10.012;2023-07-28T04:20:37;20.80;86.70
5520;DHT22;2782;52.362;10.012;2023-07-28T04:21:38;20.70;86.50
5520;DHT22;2782;52.362;10.012;2023-07-28T04:22:40;20.70;86.50
5520;DHT22;2782;52.362;10.012;2023-07-28T04:23:41;20.80;86.60
5520;DHT22;2782;52.362;10.012;2023-07-28T04:24:43;20.70;86.40
5520;DHT22;2782;52.362;10.012;2023-07-28T04:25:44;20.70;86.40
5520;DHT22;2782;52.362;10.012;2023-07-28T04:26:46;20.70;86.30
5520;DHT22;2782;52.362;10.012;2023-07-28T04:27:49;20.80;86.40
5520;DHT22;2782;52.362;10.012;2023-07-28T04:28:50;20.70;86.20
5520;DHT22;2782;52.362;10.012;2023-07-28T04:29:51;20.80;86.40
5520;DHT22;2782;52.362;10.012;2023-07-28T04:30:53;20.70;86.20
5520;DHT22;2782;52.362;10.012;2023-07-28T04:31:55;20.70;86.20
5520;DHT22;2782;52.362;10.012;2023-07-28T04:32:55;20.70;86.20
5520;DHT22;2782;52.362;10.012;2023-07-28T04:33:57;20.70;86.10
5520;DHT22;2782;52.362;10.012;2023-07-28T04:34:58;20.80;86.20
5520;DHT22;2782;52.362;10.012;2023-07-28T04:35:58;20.70;86.20
5520;DHT22;2782;52.362;10.012;2023-07-28T04:37:00;20.70;86.10
5520;DHT22;2782;52.362;10.012;2023-07-28T04:38:01;20.70;86.10
5520;DHT22;2782;52.362;10.012;2023-07-28T04:39:02;20.70;86.10
5520;DHT22;2782;52.362;10.012;2023-07-28T04:40:04;20.70;86.20
5520;DHT22;2782;52.362;10.012;2023-07-28T04:41:06;20.70;86.10
5520;DHT22;2782;52.362;10.012;2023-07-28T04:42:07;20.70;86.20
5520;DHT22;2782;52.362;10.012;2023-07-28T04:43:09;20.70;86.20
5520;DHT22;2782;52.362;10.012;2023-07-28T04:44:10;20.80;86.30
5520;DHT22;2782;52.362;10.012;2023-07-28T04:45:11;20.80;86.30
5520;DHT22;2782;52.362;10.012;2023-07-28T04:46:13;20.80;86.10
5520;DHT22;2782;52.362;10.012;2023-07-28T04:47:15;20.70;86.00
5520;DHT22;2782;52.362;10.012;2023-07-28T04:48:16;20.80;86.10
5520;DHT22;2782;52.362;10.012;2023-07-28T04:49:17;20.70;86.00
5520;DHT22;2782;52.362;10.012;2023-07-28T04:50:18;20.80;86.00
5520;DHT22;2782;52.362;10.012;2023-07-28T04:51:20;20.70;86.70
5520;DHT22;2782;52.362;10.012;2023-07-28T04:52:20;20.70;90.30
5520;DHT22;2782;52.362;10.012;2023-07-28T04:53:22;20.80;90.00
5520;DHT22;2782;52.362;10.012;2023-07-28T04:54:23;20.80;89.20
5520;DHT22;2782;52.362;10.012;2023-07-28T04:55:24;20.80;87.40
5520;DHT22;2782;52.362;10.012;2023-07-28T04:56:27;20.80;86.90
5520;DHT22;2782;52.362;10.012;2023-07-28T04:57:28;20.70;86.50
5520;DHT22;2782;52.362;10.012;2023-07-28T04:58:29;20.70;86.20
5520;DHT22;2782;52.362;10.012;2023-07-28T04:59:31;20.80;86.20
5520;DHT22;2782;52.362;10.012;2023-07-28T05:00:32;20.70;86.00
5520;DHT22;2782;52.362;10.012;2023-07-28T05:01:35;20.70;86.00
5520;DHT22;2782;52.362;10.012;2023-07-28T05:02:35;20.80;86.10
5520;DHT22;2782;52.362;10.012;2023-07-28T05:03:37;20.70;86.00
5520;DHT22;2782;52.362;10.012;2023-07-28T05:04:38;20.80;85.90
5520;DHT22;2782;52.362;10.012;2023-07-28T05:05:42;20.80;85.90
5520;DHT22;2782;52.362;10.012;2023-07-28T05:06:43;20.80;86.10
5520;DHT22;2782;52.362;10.012;2023-07-28T05:07:45;20.80;85.90
5520;DHT22;2782;52.362;10.012;2023-07-28T05:08:45;20.80;86.00
5520;DHT22;2782;52.362;10.012;2023-07-28T05:09:46;20.80;86.00
5520;DHT22;2782;52.362;10.012;2023-07-28T05:10:48;20.80;86.10
5520;DHT22;2782;52.362;10.012;2023-07-28T05:11:48;20.80;86.00
5520;DHT22;2782;52.362;10.012;2023-07-28T05:12:50;20.80;86.60
5520;DHT22;2782;52.362;10.012;2023-07-28T05:13:51;20.80;85.90
5520;DHT22;2782;52.362;10.012;2023-07-28T05:14:53;20.70;85.70
5520;DHT22;2782;52.362;10.012;2023-07-28T05:15:53;20.70;85.70
5520;DHT22;2782;52.362;10.012;2023-07-28T05:16:56;20.80;85.90
5520;DHT22;2782;52.362;10.012;2023-07-28T05:17:57;20.80;85.80
5520;DHT22;2782;52.362;10.012;2023-07-28T05:18:59;20.80;85.80
5520;DHT22;2782;52.362;10.012;2023-07-28T05:19:59;20.80;85.80
5520;DHT22;2782;52.362;10.012;2023-07-28T05:21:01;20.80;85.80
5520;DHT22;2782;52.362;10.012;2023-07-28T05:22:02;20.80;85.80
5520;DHT22;2782;52.362;10.012;2023-07-28T05:23:06;20.80;85.80
5520;DHT22;2782;52.362;10.012;2023-07-28T05:24:07;20.80;85.70
5520;DHT22;2782;52.362;10.012;2023-07-28T05:25:09;20.80;85.70
5520;DHT22;2782;52.362;10.012;2023-07-28T05:26:09;20.80;85.70
5520;DHT22;2782;52.362;10.012;2023-07-28T05:27:11;20.80;85.70
5520;DHT22;2782;52.362;10.012;2023-07-28T05:28:12;20.80;85.70
5520;DHT22;2782;52.362;10.012;2023-07-28T05:29:13;20.80;85.70
5520;DHT22;2782;52.362;10.012;2023-07-28T05:30:15;20.80;85.70
5520;DHT22;2782;52.362;10.012;2023-07-28T05:31:17;20.80;85.60
5520;DHT22;2782;52.362;10.012;2023-07-28T05:32:19;20.80;86.30
5520;DHT22;2782;52.362;10.012;2023-07-28T05:33:22;20.80;85.60
5520;DHT22;2782;52.362;10.012;2023-07-28T05:34:22;20.70;85.50
5520;DHT22;2782;52.362;10.012;2023-07-28T05:35:24;20.80;85.60
5520;DHT22;2782;52.362;10.012;2023-07-28T05:36:25;20.70;85.50
5520;DHT22;2782;52.362;10.012;2023-07-28T05:37:26;20.80;85.50
5520;DHT22;2782;52.362;10.012;2023-07-28T05:38:27;20.70;85.50
5520;DHT22;2782;52.362;10.012;2023-07-28T05:39:28;20.80;85.40
5520;DHT22;2782;52.362;10.012;2023-07-28T05:40:30;20.70;85.40
5520;DHT22;2782;52.362;10.012;2023-07-28T05:41:30;20.70;85.40
5520;DHT22;2782;52.362;10.012;2023-07-28T05:42:32;20.80;85.50
5520;DHT22;2782;52.362;10.012;2023-07-28T05:43:33;20.70;85.30
5520;DHT22;2782;52.362;10.012;2023-07-28T05:44:35;20.70;85.40
5520;DHT22;2782;52.362;10.012;2023-07-28T05:45:35;20.80;85.50
5520;DHT22;2782;52.362;10.012;2023-07-28T05:46:37;20.80;85.50
5520;DHT22;2782;52.362;10.012;2023-07-28T05:47:39;20.70;85.50
5520;DHT22;2782;52.362;10.012;2023-07-28T05:48:41;20.80;85.60
5520;DHT22;2782;52.362;10.012;2023-07-28T05:49:41;20.80;85.50
5520;DHT22;2782;52.362;10.012;2023-07-28T05:50:43;20.80;85.50
5520;DHT22;2782;52.362;10.012;2023-07-28T05:51:44;20.80;85.50
5520;DHT22;2782;52.362;10.012;2023-07-28T05:52:45;20.80;85.50
5520;DHT22;2782;52.362;10.012;2023-07-28T05:53:47;20.80;85.40
5520;DHT22;2782;52.362;10.012;2023-07-28T05:54:49;20.80;85.40
5520;DHT22;2782;52.362;10.012;2023-07-28T05:55:49;20.70;85.30
5520;DHT22;2782;52.362;10.012;2023-07-28T05:56:51;20.80;85.30
5520;DHT22;2782;52.362;10.012;2023-07-28T05:57:53;20.70;85.30
5520;DHT22;2782;52.362;10.012;2023-07-28T05:58:55;20.70;85.20
5520;DHT22;2782;52.362;10.012;2023-07-28T05:59:57;20.80;85.30
5520;DHT22;2782;52.362;10.012;2023-07-28T06:00:58;20.80;85.30
5520;DHT22;2782;52.362;10.012;2023-07-28T06:01:59;20.70;85.20
5520;DHT22;2782;52.362;10.012;2023-07-28T06:03:01;20.80;85.30
5520;DHT22;2782;52.362;10.012;2023-07-28T06:04:04;20.80;85.30
5520;DHT22;2782;52.362;10.012;2023-07-28T06:05:05;20.70;85.20
5520;DHT22;2782;52.362;10.012;2023-07-28T06:06:07;20.80;85.30
5520;DHT22;2782;52.362;10.012;2023-07-28T06:07:09;20.80;85.20
5520;DHT22;2782;52.362;10.012;2023-07-28T06:08:10;20.80;85.10
5520;DHT22;2782;52.362;10.012;2023-07-28T06:09:11;20.70;85.10
5520;DHT22;2782;52.362;10.012;2023-07-28T06:10:13;20.70;85.20
5520;DHT22;2782;52.362;10.012;2023-07-28T06:11:13;20.70;85.10
5520;DHT22;2782;52.362;10.012;2023-07-28T06:12:15;20.80;85.20
5520;DHT22;2782;52.362;10.012;2023-07-28T06:13:16;20.70;85.10
5520;DHT22;2782;52.362;10.012;2023-07-28T06:14:18;20.70;85.10
5520;DHT22;2782;52.362;10.012;2023-07-28T06:15:19;20.80;85.10
5520;DHT22;2782;52.362;10.012;2023-07-28T06:16:21;20.80;85.20
5520;DHT22;2782;52.362;10.012;2023-07-28T06:17:21;20.80;85.10
5520;DHT22;2782;52.362;10.012;2023-07-28T06:18:24;20.80;85.10
5520;DHT22;2782;52.362;10.012;2023-07-28T06:19:25;20.80;85.10
5520;DHT22;2782;52.362;10.012;2023-07-28T06:20:27;20.80;85.10
5520;DHT22;2782;52.362;10.012;2023-07-28T06:21:27;20.80;85.00
5520;DHT22;2782;52.362;10.012;2023-07-28T06:22:29;20.80;85.00
5520;DHT22;2782;52.362;10.012;2023-07-28T06:23:30;20.80;85.10
5520;DHT22;2782;52.362;10.012;2023-07-28T06:24:31;20.80;84.80
5520;DHT22;2782;52.362;10.012;2023-07-28T06:25:32;20.80;84.90
5520;DHT22;2782;52.362;10.012;2023-07-28T06:26:33;20.80;84.80
5520;DHT22;2782;52.362;10.012;2023-07-28T06:27:34;20.80;84.80
5520;DHT22;2782;52.362;10.012;2023-07-28T06:28:35;20.80;84.70
5520;DHT22;2782;52.362;10.012;2023-07-28T06:29:38;20.80;84.70
5520;DHT22;2782;52.362;10.012;2023-07-28T06:30:39;20.80;84.70
5520;DHT22;2782;52.362;10.012;2023-07-28T06:31:41;20.80;84.70
5520;DHT22;2782;52.362;10.012;2023-07-28T06:32:41;20.80;84.60
5520;DHT22;2782;52.362;10.012;2023-07-28T06:33:46;20.80;84.60
5520;DHT22;2782;52.362;10.012;2023-07-28T06:34:47;20.80;84.60